Time;durP1;ratioP1;P1;durP2;ratioP2;P2;SDS_P1;SDS_P2;PMS_P1;PMS_P2;Temp;Humidity;BMP_temperature;BMP_pressure;BME280_temperature;BME280_humidity;BME280_pressure;Samples;Min_cycle;Max_cycle;Signal;HPM_P1;HPM_P2
2023/04/25 00:00:19;;;;;;;18.33;10.75;;;13.40;99.90;;;;;;4993962;28;20030;-87
2023/04/25 00:02:46;;;;;;;18.92;9.98;;;13.30;99.90;;;;;;4995265;28;20069;-87
2023/04/25 00:05:12;;;;;;;16.17;9.85;;;13.10;99.90;;;;;;4995464;28;20033;-87
2023/04/25 00:07:38;;;;;;;16.08;9.15;;;13.10;99.90;;;;;;4993407;28;20034;-87
2023/04/25 00:10:04;;;;;;;15.50;9.13;;;12.70;99.90;;;;;;4995405;28;20029;-87
2023/04/25 00:12:30;;;;;;;16.08;9.02;;;13.20;99.90;;;;;;4994648;28;20030;-87
2023/04/25 00:14:59;;;;;;;14.13;9.32;;;13.20;99.90;;;;;;4995125;28;20060;-87
2023/04/25 00:17:26;;;;;;;18.90;10.38;;;13.20;99.90;;;;;;4995351;28;20030;-87
2023/04/25 00:19:52;;;;;;;18.63;11.05;;;13.20;99.90;;;;;;4994870;28;20479;-87
2023/04/25 00:22:18;;;;;;;17.48;10.57;;;13.20;99.90;;;;;;4994922;28;20033;-87
2023/04/25 00:24:43;;;;;;;18.10;11.15;;;13.20;99.90;;;;;;4995315;28;20035;-87
2023/04/25 00:27:09;;;;;;;19.60;11.98;;;13.30;99.90;;;;;;4994292;28;20349;-87
2023/04/25 00:29:35;;;;;;;17.08;9.18;;;13.30;99.90;;;;;;4994799;28;20027;-87
2023/04/25 00:32:01;;;;;;;19.08;10.23;;;13.20;99.90;;;;;;4993941;28;20041;-87
2023/04/25 00:34:27;;;;;;;15.98;9.40;;;13.10;99.90;;;;;;4994445;28;20026;-87
2023/04/25 00:36:53;;;;;;;9.95;6.55;;;13.10;99.90;;;;;;4993433;28;20039;-86
2023/04/25 00:39:18;;;;;;;10.18;6.32;;;13.10;99.90;;;;;;4986552;28;20397;-87
2023/04/25 00:41:45;;;;;;;11.30;6.82;;;13.10;99.90;;;;;;4973476;28;20034;-87
2023/04/25 00:44:12;;;;;;;10.63;6.47;;;13.00;99.90;;;;;;4975288;28;20475;-87
2023/04/25 00:46:39;;;;;;;9.70;6.85;;;13.10;99.90;;;;;;4984625;28;20034;-87
2023/04/25 00:49:05;;;;;;;8.93;6.90;;;13.10;99.90;;;;;;4994305;28;20109;-87
2023/04/25 00:51:32;;;;;;;12.18;7.38;;;13.00;99.90;;;;;;4993089;28;20117;-87
2023/04/25 00:53:58;;;;;;;10.38;7.30;;;13.10;99.90;;;;;;4992994;28;20054;-87
2023/04/25 00:56:24;;;;;;;10.10;7.00;;;13.00;99.90;;;;;;4992397;28;20499;-87
2023/04/25 00:58:56;;;;;;;11.38;7.47;;;13.10;99.90;;;;;;4994123;28;20030;-87
2023/04/25 01:01:22;;;;;;;10.30;7.38;;;13.00;99.90;;;;;;4992918;28;20030;-86
2023/04/25 01:03:49;;;;;;;12.07;7.30;;;12.90;99.90;;;;;;4994236;28;20030;-87
2023/04/25 01:06:15;;;;;;;9.82;7.63;;;12.90;99.90;;;;;;4992930;28;20436;-87
2023/04/25 01:08:41;;;;;;;11.25;7.50;;;12.90;99.90;;;;;;4994060;28;20031;-87
2023/04/25 01:11:07;;;;;;;9.65;7.63;;;12.90;99.90;;;;;;4993498;28;20097;-87
2023/04/25 01:13:33;;;;;;;12.35;7.80;;;12.90;99.90;;;;;;4992765;28;20034;-87
2023/04/25 01:16:01;;;;;;;10.23;7.63;;;12.90;99.90;;;;;;4993736;28;20045;-87
2023/04/25 01:18:26;;;;;;;13.98;7.57;;;12.90;99.90;;;;;;4992637;28;20404;-87
2023/04/25 01:20:53;;;;;;;12.52;7.80;;;12.90;99.90;;;;;;4993821;28;20041;-87
2023/04/25 01:23:20;;;;;;;13.73;8.10;;;12.90;99.90;;;;;;4992837;28;20037;-87
2023/04/25 01:25:47;;;;;;;13.38;8.27;;;12.90;99.90;;;;;;4991894;28;20073;-87
2023/04/25 01:28:13;;;;;;;12.18;8.07;;;12.90;99.90;;;;;;4993923;28;20015;-87
2023/04/25 01:30:40;;;;;;;14.32;8.50;;;12.70;99.90;;;;;;4993955;28;20092;-87
2023/04/25 01:33:08;;;;;;;13.73;7.82;;;12.70;99.90;;;;;;4993614;28;20026;-88
2023/04/25 01:35:34;;;;;;;10.70;8.18;;;12.60;99.90;;;;;;4993530;28;20058;-87
2023/04/25 01:38:00;;;;;;;12.38;8.00;;;12.60;99.90;;;;;;4992018;28;20507;-87
2023/04/25 01:40:27;;;;;;;14.38;8.10;;;12.50;99.90;;;;;;4974795;28;20130;-87
2023/04/25 01:42:53;;;;;;;11.38;7.47;;;12.40;99.90;;;;;;4972883;28;20330;-87
2023/04/25 01:45:19;;;;;;;13.63;8.50;;;12.30;99.90;;;;;;4974301;28;20062;-88
2023/04/25 01:47:48;;;;;;;11.63;7.72;;;12.30;99.90;;;;;;4992270;28;20037;-88
2023/04/25 01:50:15;;;;;;;11.45;7.32;;;12.30;99.90;;;;;;4992077;28;20030;-87
2023/04/25 01:52:41;;;;;;;13.65;7.63;;;12.40;99.90;;;;;;4992436;28;20031;-87
2023/04/25 01:55:07;;;;;;;10.32;7.43;;;12.20;99.90;;;;;;4992831;28;20129;-88
2023/04/25 01:57:33;;;;;;;13.27;8.10;;;12.10;99.90;;;;;;4993405;28;20050;-87
2023/04/25 02:00:01;;;;;;;12.32;8.18;;;12.30;99.90;;;;;;4991975;28;20030;-88
2023/04/25 02:02:27;;;;;;;12.25;6.80;;;12.20;99.90;;;;;;4992270;28;20117;-88
2023/04/25 02:04:54;;;;;;;10.18;6.35;;;12.30;99.90;;;;;;4992091;28;20121;-87
2023/04/25 02:07:20;;;;;;;7.82;5.30;;;12.30;99.90;;;;;;4992692;28;20026;-87
2023/04/25 02:09:45;;;;;;;6.47;4.72;;;12.40;99.90;;;;;;4993118;28;20034;-87
2023/04/25 02:12:11;;;;;;;9.32;4.80;;;12.40;99.90;;;;;;4993323;28;20109;-87
2023/04/25 02:14:37;;;;;;;6.60;4.57;;;12.50;99.90;;;;;;4992956;28;20480;-88
2023/04/25 02:17:02;;;;;;;6.35;4.40;;;12.40;99.90;;;;;;4992388;28;20034;-88
2023/04/25 02:19:28;;;;;;;9.63;4.55;;;12.40;99.90;;;;;;4992372;28;20034;-87
2023/04/25 02:21:54;;;;;;;9.70;4.65;;;12.60;99.90;;;;;;4992469;28;20117;-87
2023/04/25 02:24:20;;;;;;;7.30;4.50;;;12.60;99.90;;;;;;4993124;28;20037;-87
2023/04/25 02:26:46;;;;;;;8.38;5.05;;;12.60;99.90;;;;;;4991736;28;20388;-87
2023/04/25 02:29:12;;;;;;;9.68;4.75;;;12.50;99.90;;;;;;4993010;28;20026;-87
2023/04/25 02:31:38;;;;;;;7.72;4.90;;;12.50;99.90;;;;;;4992839;28;20026;-88
2023/04/25 02:34:04;;;;;;;7.30;4.90;;;12.50;99.90;;;;;;4991957;28;20076;-87
2023/04/25 02:36:33;;;;;;;7.30;5.10;;;12.60;99.90;;;;;;4992355;28;20121;-88
2023/04/25 02:39:00;;;;;;;8.00;5.40;;;12.40;99.90;;;;;;4987431;28;20123;-88
2023/04/25 02:41:25;;;;;;;8.80;5.00;;;12.50;99.90;;;;;;4973532;28;20395;-87
2023/04/25 02:43:51;;;;;;;7.95;5.22;;;12.50;99.90;;;;;;4973551;28;20102;-88
2023/04/25 02:46:17;;;;;;;9.25;5.68;;;12.50;99.90;;;;;;4980574;28;20514;-87
2023/04/25 02:48:43;;;;;;;8.20;5.70;;;12.50;99.90;;;;;;4992823;28;20033;-88
2023/04/25 02:51:09;;;;;;;7.38;5.32;;;12.50;99.90;;;;;;4992276;28;20030;-88
2023/04/25 02:53:34;;;;;;;6.78;5.10;;;12.60;99.90;;;;;;4991395;28;20031;-88
2023/04/25 02:56:00;;;;;;;8.68;5.10;;;12.50;99.90;;;;;;4991328;28;20068;-87
2023/04/25 02:58:26;;;;;;;10.07;5.60;;;12.50;99.90;;;;;;4992957;28;20022;-88
2023/04/25 03:00:52;;;;;;;8.73;5.25;;;12.50;99.90;;;;;;4991450;28;20165;-87
2023/04/25 03:03:17;;;;;;;9.75;5.30;;;12.50;99.90;;;;;;4991313;28;20087;-88
2023/04/25 03:05:44;;;;;;;8.25;5.72;;;12.60;99.90;;;;;;4992048;28;20483;-88
2023/04/25 03:08:10;;;;;;;8.73;5.63;;;12.50;99.90;;;;;;4992478;28;20026;-88
2023/04/25 03:10:35;;;;;;;8.40;5.25;;;12.60;99.90;;;;;;4992425;28;20502;-88
2023/04/25 03:13:01;;;;;;;8.60;5.07;;;12.60;99.90;;;;;;4991280;28;20081;-88
2023/04/25 03:15:26;;;;;;;6.82;5.25;;;12.50;99.90;;;;;;4991094;28;20070;-88
2023/04/25 03:17:52;;;;;;;7.07;5.45;;;12.50;99.90;;;;;;4992765;28;20053;-87
2023/04/25 03:20:18;;;;;;;7.22;5.68;;;12.40;99.90;;;;;;4992235;28;20061;-88
2023/04/25 03:22:44;;;;;;;9.15;5.60;;;12.50;99.90;;;;;;4992440;28;20061;-88
2023/04/25 03:25:10;;;;;;;8.13;5.65;;;12.50;99.90;;;;;;4992324;28;20038;-88
2023/04/25 03:27:35;;;;;;;8.88;5.47;;;12.40;99.90;;;;;;4994034;28;20391;-88
2023/04/25 03:30:01;;;;;;;6.53;5.13;;;12.40;99.90;;;;;;4995256;28;20122;-88
2023/04/25 03:32:27;;;;;;;9.15;5.97;;;12.40;99.90;;;;;;4995820;28;20121;-88
2023/04/25 03:34:52;;;;;;;8.52;5.80;;;12.30;99.90;;;;;;4995451;28;20533;-88
2023/04/25 03:37:18;;;;;;;7.93;5.60;;;12.30;99.90;;;;;;4996276;28;20506;-88
2023/04/25 03:39:44;;;;;;;5.85;5.20;;;12.30;99.90;;;;;;4983330;28;20078;-88
2023/04/25 03:42:09;;;;;;;8.45;5.40;;;12.20;99.90;;;;;;4976814;28;20033;-88
2023/04/25 03:44:35;;;;;;;10.80;6.10;;;12.10;99.90;;;;;;4976591;28;20041;-88
2023/04/25 03:47:01;;;;;;;7.38;5.28;;;12.00;99.90;;;;;;4989977;28;20041;-87
2023/04/25 03:49:26;;;;;;;7.82;5.40;;;12.00;99.90;;;;;;4995122;28;20149;-88
2023/04/25 03:51:52;;;;;;;6.90;5.10;;;12.00;99.90;;;;;;4995640;28;20085;-88
2023/04/25 03:54:17;;;;;;;6.72;5.32;;;11.90;99.90;;;;;;4995417;28;20026;-89
2023/04/25 03:56:43;;;;;;;8.27;4.78;;;12.00;99.90;;;;;;4994240;28;20038;-88
2023/04/25 03:59:09;;;;;;;6.88;4.82;;;11.80;99.90;;;;;;4994293;28;20022;-88
2023/04/25 04:01:35;;;;;;;6.25;4.60;;;11.90;99.90;;;;;;4994362;28;20041;-88
2023/04/25 04:04:01;;;;;;;7.63;5.00;;;11.90;99.90;;;;;;4995056;28;20349;-88
2023/04/25 04:06:26;;;;;;;6.45;4.85;;;11.90;99.90;;;;;;4995143;28;20034;-88
2023/04/25 04:08:52;;;;;;;7.75;5.00;;;12.00;99.90;;;;;;4995417;28;20027;-88
2023/04/25 04:11:18;;;;;;;6.68;4.82;;;11.90;99.90;;;;;;4995649;28;20411;-88
2023/04/25 04:13:43;;;;;;;5.63;4.53;;;11.90;99.90;;;;;;4993791;28;20026;-87
2023/04/25 04:16:09;;;;;;;7.35;5.35;;;12.00;99.90;;;;;;4994950;28;20034;-88
2023/04/25 04:18:35;;;;;;;8.50;5.43;;;11.90;99.90;;;;;;4994899;28;20026;-88
2023/04/25 04:21:01;;;;;;;8.00;4.80;;;12.00;99.90;;;;;;4995031;28;20081;-88
2023/04/25 04:23:27;;;;;;;7.00;6.05;;;11.90;99.90;;;;;;4993978;28;20030;-88
2023/04/25 04:25:53;;;;;;;7.63;5.63;;;12.00;99.90;;;;;;4993618;28;20037;-88
2023/04/25 04:28:20;;;;;;;11.68;5.55;;;12.00;99.90;;;;;;4994935;28;20014;-89
2023/04/25 04:30:46;;;;;;;8.02;5.38;;;12.00;99.90;;;;;;4994779;28;20077;-88
2023/04/25 04:33:12;;;;;;;7.90;5.30;;;11.90;99.90;;;;;;4993321;28;20027;-88
2023/04/25 04:35:37;;;;;;;8.85;5.63;;;12.00;99.90;;;;;;4994389;28;20122;-89
2023/04/25 04:38:03;;;;;;;13.20;5.80;;;12.00;99.90;;;;;;4992995;28;20401;-89
2023/04/25 04:40:31;;;;;;;7.53;5.07;;;12.10;99.90;;;;;;4976452;28;20117;-88
2023/04/25 04:42:57;;;;;;;8.90;5.15;;;12.20;99.90;;;;;;4975156;28;20098;-89
2023/04/25 04:45:23;;;;;;;9.27;5.03;;;12.10;99.90;;;;;;4974990;28;20114;-88
2023/04/25 04:47:49;;;;;;;9.02;5.70;;;12.20;99.90;;;;;;4993958;28;20121;-89
2023/04/25 04:50:16;;;;;;;8.63;5.20;;;12.10;99.90;;;;;;4994219;28;20034;-88
2023/04/25 04:52:41;;;;;;;10.05;5.80;;;12.20;99.90;;;;;;4993322;28;20383;-88
2023/04/25 04:55:08;;;;;;;9.57;5.40;;;12.30;99.90;;;;;;4994005;28;20026;-89
2023/04/25 04:57:34;;;;;;;9.40;5.20;;;12.30;99.90;;;;;;4994295;28;20040;-88
2023/04/25 05:00:00;;;;;;;8.18;5.30;;;12.30;99.90;;;;;;4994131;28;20049;-88
2023/04/25 05:02:26;;;;;;;8.35;5.05;;;12.40;99.90;;;;;;4993533;28;20049;-89
2023/04/25 05:04:52;;;;;;;10.10;5.38;;;12.40;99.90;;;;;;4994386;28;20030;-89
2023/04/25 05:07:19;;;;;;;9.00;5.75;;;12.40;99.90;;;;;;4993798;28;20399;-88
2023/04/25 05:09:45;;;;;;;7.63;5.07;;;12.30;99.90;;;;;;4992566;28;20029;-88
2023/04/25 05:12:10;;;;;;;10.32;5.28;;;12.40;99.90;;;;;;4993969;28;20038;-88
2023/04/25 05:14:36;;;;;;;11.15;5.95;;;12.50;99.90;;;;;;4993843;28;20030;-88
2023/04/25 05:17:04;;;;;;;8.05;5.13;;;12.40;99.90;;;;;;4993376;28;20113;-89
2023/04/25 05:19:30;;;;;;;9.52;5.50;;;12.40;99.90;;;;;;4993042;28;20073;-89
2023/04/25 05:21:56;;;;;;;7.53;5.32;;;12.30;99.90;;;;;;4993664;28;20058;-88
2023/04/25 05:24:21;;;;;;;8.13;4.85;;;12.40;99.90;;;;;;4992479;28;20030;-89
2023/04/25 05:26:47;;;;;;;7.88;5.40;;;12.20;99.90;;;;;;4992491;28;20037;-88
2023/04/25 05:29:13;;;;;;;8.68;5.35;;;12.30;99.90;;;;;;4993391;28;20565;-88
2023/04/25 05:31:38;;;;;;;11.95;5.22;;;12.30;99.90;;;;;;4993177;28;20510;-88
2023/04/25 05:34:04;;;;;;;11.02;5.70;;;12.20;99.90;;;;;;4993561;28;20022;-88
2023/04/25 05:36:30;;;;;;;9.27;5.20;;;12.30;99.90;;;;;;4993278;28;20061;-88
2023/04/25 05:38:56;;;;;;;7.70;5.40;;;12.20;99.90;;;;;;4988255;28;20495;-89
2023/04/25 05:41:22;;;;;;;8.40;4.90;;;12.40;99.90;;;;;;4973807;28;20062;-88
2023/04/25 05:43:49;;;;;;;8.05;5.13;;;12.60;99.90;;;;;;4974247;28;20027;-88
2023/04/25 05:46:16;;;;;;;9.27;5.13;;;12.50;99.90;;;;;;4979802;28;20026;-88
2023/04/25 05:48:42;;;;;;;9.10;5.10;;;12.40;99.90;;;;;;4993635;28;20464;-88
2023/04/25 05:51:08;;;;;;;7.53;4.65;;;12.50;99.90;;;;;;4992205;28;20466;-89
2023/04/25 05:53:34;;;;;;;8.88;5.22;;;12.70;99.90;;;;;;4993303;28;20106;-88
2023/04/25 05:56:01;;;;;;;7.97;5.15;;;12.70;99.90;;;;;;4993314;28;20046;-88
2023/04/25 05:58:27;;;;;;;8.77;5.35;;;12.80;99.90;;;;;;4991559;28;20365;-89
2023/04/25 06:00:52;;;;;;;10.13;4.45;;;13.00;99.90;;;;;;4992564;28;20035;-89
2023/04/25 06:03:18;;;;;;;8.95;4.97;;;13.00;99.90;;;;;;4991942;28;20053;-89
2023/04/25 06:05:44;;;;;;;10.93;4.88;;;12.90;99.90;;;;;;4993032;28;20038;-88
2023/04/25 06:08:10;;;;;;;9.02;4.78;;;12.90;99.90;;;;;;4991545;28;20029;-89
2023/04/25 06:10:36;;;;;;;8.20;4.70;;;12.70;99.90;;;;;;4993466;28;20030;-88
2023/04/25 06:13:02;;;;;;;9.70;5.50;;;12.90;99.90;;;;;;4992782;28;20482;-89
2023/04/25 06:15:28;;;;;;;7.85;5.40;;;13.00;99.90;;;;;;4992176;28;20537;-88
2023/04/25 06:17:54;;;;;;;8.95;5.35;;;13.10;99.90;;;;;;4992997;28;20026;-88
2023/04/25 06:20:23;;;;;;;12.45;5.30;;;13.30;99.90;;;;;;4991673;28;20410;-89
2023/04/25 06:22:49;;;;;;;6.97;5.00;;;13.20;99.90;;;;;;4991383;28;20482;-88
2023/04/25 06:25:15;;;;;;;8.15;5.20;;;13.30;99.90;;;;;;4992434;28;20031;-88
2023/04/25 06:27:41;;;;;;;11.27;5.50;;;13.50;99.90;;;;;;4993193;28;20372;-88
2023/04/25 06:30:07;;;;;;;10.45;5.30;;;13.50;99.90;;;;;;4991080;28;20030;-88
2023/04/25 06:32:34;;;;;;;11.80;5.75;;;13.40;99.90;;;;;;4992698;28;20031;-88
2023/04/25 06:35:00;;;;;;;11.75;6.15;;;13.30;99.90;;;;;;4991148;28;20049;-88
2023/04/25 06:37:25;;;;;;;8.05;5.47;;;13.30;99.90;;;;;;4992556;28;20614;-89
2023/04/25 06:39:51;;;;;;;11.18;5.57;;;13.30;99.90;;;;;;4979729;28;20137;-88
2023/04/25 06:42:17;;;;;;;12.10;6.07;;;13.30;99.90;;;;;;4971851;28;20113;-89
2023/04/25 06:44:42;;;;;;;10.35;5.68;;;13.40;99.90;;;;;;4972541;28;20507;-89
2023/04/25 06:47:08;;;;;;;8.68;5.53;;;13.50;99.90;;;;;;4985396;28;20128;-89
2023/04/25 06:49:34;;;;;;;8.82;6.15;;;13.60;99.90;;;;;;4992928;28;20026;-88
2023/04/25 06:51:59;;;;;;;8.38;5.90;;;13.60;99.90;;;;;;4992382;28;20480;-88
2023/04/25 06:54:27;;;;;;;9.15;5.63;;;13.50;99.90;;;;;;4992253;28;20022;-89
2023/04/25 06:56:53;;;;;;;12.45;5.90;;;13.60;99.90;;;;;;4992346;28;20030;-89
2023/04/25 06:59:19;;;;;;;10.73;5.93;;;13.40;99.90;;;;;;4991877;28;20053;-88
2023/04/25 07:01:44;;;;;;;9.07;5.78;;;13.50;99.90;;;;;;4992816;28;20058;-89
2023/04/25 07:04:10;;;;;;;9.70;6.10;;;13.50;99.90;;;;;;4996433;28;20041;-89
2023/04/25 07:06:38;;;;;;;10.20;6.05;;;13.40;99.90;;;;;;4996176;28;20072;-89
2023/04/25 07:09:05;;;;;;;10.82;5.88;;;13.50;99.90;;;;;;4996699;28;20096;-89
2023/04/25 07:11:30;;;;;;;10.73;5.68;;;13.60;99.90;;;;;;4995864;28;20030;-88
2023/04/25 07:13:56;;;;;;;8.57;5.65;;;13.60;99.90;;;;;;4996374;28;20072;-89
2023/04/25 07:16:21;;;;;;;9.27;5.45;;;13.60;99.90;;;;;;4995993;28;20414;-88
2023/04/25 07:18:47;;;;;;;9.07;5.45;;;13.50;99.90;;;;;;4996185;28;20027;-89
2023/04/25 07:21:13;;;;;;;9.43;5.57;;;13.60;99.90;;;;;;4994927;28;20041;-89
2023/04/25 07:23:40;;;;;;;8.95;5.72;;;13.70;99.90;;;;;;4996283;28;20026;-89
2023/04/25 07:26:06;;;;;;;8.63;5.13;;;13.90;99.90;;;;;;4994955;28;20479;-89
2023/04/25 07:28:31;;;;;;;9.30;6.30;;;13.90;99.90;;;;;;4995667;28;20065;-89
2023/04/25 07:30:58;;;;;;;11.25;7.75;;;14.00;99.90;;;;;;4994757;28;20062;-89
2023/04/25 07:33:23;;;;;;;12.70;6.20;;;14.20;99.90;;;;;;4996179;28;20503;-89
2023/04/25 07:35:50;;;;;;;9.40;5.70;;;14.20;99.90;;;;;;4995667;28;20117;-88
2023/04/25 07:38:15;;;;;;;9.38;5.28;;;14.20;99.90;;;;;;4995961;28;20055;-88
2023/04/25 07:40:41;;;;;;;10.05;5.80;;;13.90;99.90;;;;;;4976059;28;20045;-89
2023/04/25 07:43:07;;;;;;;9.80;5.57;;;14.20;99.90;;;;;;4976021;28;20472;-88
2023/04/25 07:45:32;;;;;;;9.00;6.03;;;14.40;99.90;;;;;;4975814;28;20031;-89
2023/04/25 07:47:58;;;;;;;10.68;6.10;;;14.40;99.90;;;;;;4995608;28;20054;-89
2023/04/25 07:50:24;;;;;;;10.25;6.03;;;14.50;99.90;;;;;;4995710;28;20388;-89
2023/04/25 07:52:49;;;;;;;8.90;5.60;;;14.50;99.90;;;;;;4995710;28;20031;-89
2023/04/25 07:55:16;;;;;;;9.80;5.97;;;14.40;99.90;;;;;;4994906;28;20067;-89
2023/04/25 07:57:41;;;;;;;12.18;5.80;;;14.00;99.90;;;;;;4995472;28;20068;-89
2023/04/25 08:00:09;;;;;;;9.60;5.22;;;14.40;99.90;;;;;;4995267;28;20026;-89
2023/04/25 08:02:36;;;;;;;6.85;5.25;;;14.70;99.90;;;;;;4995371;28;20031;-89
2023/04/25 08:05:02;;;;;;;9.65;5.15;;;14.80;99.90;;;;;;4995447;28;20077;-89
2023/04/25 08:07:27;;;;;;;9.25;4.82;;;15.10;99.90;;;;;;4995810;28;20044;-89
2023/04/25 08:09:54;;;;;;;8.07;5.43;;;15.10;99.90;;;;;;4994785;28;20527;-88
2023/04/25 08:12:20;;;;;;;9.23;5.47;;;15.20;99.90;;;;;;4995177;28;20033;-89
2023/04/25 08:14:45;;;;;;;8.63;5.43;;;15.00;99.90;;;;;;4994060;28;20387;-89
2023/04/25 08:17:11;;;;;;;8.25;5.07;;;15.10;99.90;;;;;;4994276;28;20140;-88
2023/04/25 08:19:37;;;;;;;6.50;5.43;;;15.50;99.90;;;;;;4995130;28;20085;-89
2023/04/25 08:22:03;;;;;;;8.55;4.60;;;15.90;99.90;;;;;;4993786;28;20049;-89
2023/04/25 08:24:28;;;;;;;7.43;5.15;;;15.70;99.90;;;;;;4994894;28;20470;-89
2023/04/25 08:26:54;;;;;;;8.48;4.90;;;15.20;99.90;;;;;;4994952;28;20034;-89
2023/04/25 08:29:20;;;;;;;7.30;4.65;;;15.30;99.90;;;;;;4994808;28;20493;-89
2023/04/25 08:31:45;;;;;;;7.50;4.25;;;14.90;99.90;;;;;;4993761;28;20296;-89
2023/04/25 08:34:11;;;;;;;5.95;4.05;;;15.00;99.90;;;;;;4994805;28;20077;-88
2023/04/25 08:36:37;;;;;;;7.50;4.63;;;15.20;99.90;;;;;;4994552;28;20050;-88
2023/04/25 08:39:02;;;;;;;6.75;4.30;;;15.30;99.90;;;;;;4988142;28;20047;-89
2023/04/25 08:41:28;;;;;;;5.30;4.10;;;15.40;99.90;;;;;;4975247;28;20023;-89
2023/04/25 08:43:56;;;;;;;5.45;4.57;;;15.70;99.90;;;;;;4975506;28;20345;-89
2023/04/25 08:46:23;;;;;;;6.10;4.30;;;15.50;99.90;;;;;;4982495;28;20623;-88
2023/04/25 08:48:49;;;;;;;8.32;4.78;;;15.40;99.90;;;;;;4994464;28;20146;-89
2023/04/25 08:51:24;;;;;;;7.93;4.82;;;15.30;99.90;;;;;;4994405;28;20450;-89
2023/04/25 08:53:51;;;;;;;7.70;4.40;;;15.20;99.90;;;;;;4994141;28;20044;-89
2023/04/25 08:56:18;;;;;;;10.65;4.60;;;15.30;99.90;;;;;;4994462;28;20034;-88
2023/04/25 08:58:45;;;;;;;5.90;4.55;;;16.00;99.90;;;;;;4992989;28;20050;-89
2023/04/25 09:01:11;;;;;;;7.88;4.35;;;15.90;99.90;;;;;;4994247;28;20030;-89
2023/04/25 09:03:38;;;;;;;6.72;3.95;;;15.90;99.90;;;;;;4994645;28;20081;-89
2023/04/25 09:06:04;;;;;;;5.38;3.97;;;16.20;99.90;;;;;;4994361;28;20048;-89
2023/04/25 09:08:30;;;;;;;5.85;3.90;;;16.30;99.90;;;;;;4993245;28;20070;-89
2023/04/25 09:10:55;;;;;;;5.50;3.53;;;15.80;99.90;;;;;;4994445;28;20034;-89
2023/04/25 09:13:26;;;;;;;6.88;3.67;;;16.00;99.90;;;;;;4992678;28;20022;-89
2023/04/25 09:15:57;;;;;;;4.47;3.10;;;15.70;99.90;;;;;;4992650;28;20039;-89
2023/04/25 09:18:25;;;;;;;3.83;2.90;;;15.90;99.90;;;;;;4993968;28;20444;-88
2023/04/25 09:20:52;;;;;;;4.57;2.70;;;15.80;99.90;;;;;;4994282;28;20387;-89
2023/04/25 09:23:21;;;;;;;4.78;3.10;;;16.00;99.90;;;;;;4992073;28;20030;-89
2023/04/25 09:25:48;;;;;;;4.40;2.75;;;15.90;99.90;;;;;;4993586;28;20112;-88
2023/04/25 09:28:13;;;;;;;6.07;3.13;;;15.60;99.90;;;;;;4993878;28;20431;-89
2023/04/25 09:30:39;;;;;;;4.90;3.28;;;15.60;99.90;;;;;;4993868;28;20034;-89
2023/04/25 09:33:06;;;;;;;5.75;3.00;;;15.50;99.90;;;;;;4993809;28;20029;-89
2023/04/25 09:35:37;;;;;;;5.78;2.90;;;15.60;99.90;;;;;;4993661;28;20034;-89
2023/04/25 09:38:11;;;;;;;3.95;2.90;;;15.70;99.90;;;;;;4993149;28;20450;-88
2023/04/25 09:40:44;;;;;;;5.53;2.88;;;15.80;99.90;;;;;;4954291;28;20035;-88
2023/04/25 09:43:30;;;;;;;4.32;2.40;;;15.90;99.90;;;;;;4954365;28;20607;-89
2023/04/25 09:46:00;;;;;;;4.15;2.63;;;16.10;99.90;;;;;;4962412;28;20069;-88
2023/04/25 09:48:26;;;;;;;4.43;2.50;;;16.30;99.90;;;;;;4993410;28;20030;-88
2023/04/25 09:51:14;;;;;;;5.57;2.60;;;16.20;99.90;;;;;;4993435;28;20034;-88
2023/04/25 09:53:41;;;;;;;4.53;2.25;;;16.10;99.90;;;;;;4993304;28;20049;-88
2023/04/25 09:56:12;;;;;;;5.25;2.40;;;16.20;99.90;;;;;;4993736;28;20140;-88
2023/04/25 09:58:39;;;;;;;3.85;2.38;;;16.30;99.90;;;;;;4993320;28;20025;-89
2023/04/25 10:01:07;;;;;;;3.30;2.10;;;16.50;99.90;;;;;;4993303;28;20034;-88
2023/04/25 10:03:35;;;;;;;4.57;2.55;;;16.70;99.90;;;;;;4993258;28;20026;-88
2023/04/25 10:06:02;;;;;;;5.40;2.58;;;17.10;99.90;;;;;;4992795;28;20026;-89
2023/04/25 10:08:34;;;;;;;4.13;2.83;;;17.10;99.90;;;;;;4993017;28;20026;-88
2023/04/25 10:11:02;;;;;;;4.15;2.60;;;16.80;99.90;;;;;;4993073;28;20105;-88
2023/04/25 10:13:32;;;;;;;3.70;2.88;;;17.00;99.90;;;;;;4993549;28;20177;-88
2023/04/25 10:15:59;;;;;;;5.53;3.28;;;16.90;99.90;;;;;;4991735;28;20051;-88
2023/04/25 10:18:29;;;;;;;6.57;3.35;;;16.90;99.90;;;;;;4991977;28;20022;-88
2023/04/25 10:21:00;;;;;;;4.38;2.90;;;16.90;99.90;;;;;;4992745;28;20030;-87
2023/04/25 10:23:26;;;;;;;5.75;3.05;;;16.80;99.90;;;;;;4992895;28;20509;-88
2023/04/25 10:25:52;;;;;;;4.13;2.58;;;16.80;99.90;;;;;;4992865;28;20037;-88
2023/04/25 10:28:19;;;;;;;5.68;2.50;;;16.80;99.90;;;;;;4993326;28;20019;-88
2023/04/25 10:31:07;;;;;;;4.70;2.20;;;16.90;99.90;;;;;;4992763;28;20037;-88
2023/04/25 10:33:39;;;;;;;4.15;2.72;;;16.80;99.90;;;;;;4992738;28;20046;-88
2023/04/25 10:36:17;;;;;;;5.07;2.50;;;17.30;99.90;;;;;;4992064;28;20065;-88
2023/04/25 10:38:43;;;;;;;5.95;2.13;;;17.30;99.90;;;;;;4989301;28;20090;-89
2023/04/25 10:41:10;;;;;;;6.43;2.50;;;17.50;99.90;;;;;;4973420;28;20119;-89
2023/04/25 10:43:46;;;;;;;3.47;2.30;;;17.80;99.90;;;;;;4973968;28;20025;-89
2023/04/25 10:46:29;;;;;;;4.85;2.60;;;17.70;99.90;;;;;;4978160;28;20119;-89
2023/04/25 10:48:56;;;;;;;4.80;2.28;;;18.50;99.90;;;;;;4992875;28;20097;-89
2023/04/25 10:51:25;;;;;;;4.63;2.03;;;18.30;99.90;;;;;;4992440;28;20365;-89
2023/04/25 10:53:58;;;;;;;7.03;2.60;;;18.80;99.90;;;;;;4993118;28;20022;-89
2023/04/25 10:56:25;;;;;;;4.97;2.55;;;18.50;99.90;;;;;;4991354;28;20030;-90
2023/04/25 10:58:51;;;;;;;3.78;2.00;;;18.90;99.90;;;;;;4991735;28;20483;-89
2023/04/25 11:01:24;;;;;;;4.50;2.28;;;20.00;99.90;;;;;;4992564;28;20034;-89
2023/04/25 11:03:57;;;;;;;3.85;2.10;;;21.90;99.90;;;;;;4992297;28;20038;-90
2023/04/25 11:06:37;;;;;;;5.00;1.98;;;23.50;99.90;;;;;;4991377;28;20053;-90
2023/04/25 11:09:10;;;;;;;2.97;2.22;;;24.90;99.90;;;;;;4992812;28;20030;-90
2023/04/25 11:11:36;;;;;;;3.65;2.05;;;24.90;99.90;;;;;;4992726;28;20026;-90
2023/04/25 11:14:03;;;;;;;2.83;2.15;;;25.40;99.90;;;;;;4992617;28;20416;-90
2023/04/25 11:16:30;;;;;;;7.05;2.30;;;25.20;99.90;;;;;;4992947;28;20034;-90
2023/04/25 11:18:58;;;;;;;4.20;2.17;;;25.30;99.90;;;;;;4992307;28;20050;-90
2023/04/25 11:21:26;;;;;;;3.67;2.00;;;25.80;99.90;;;;;;4992980;28;20499;-90
2023/04/25 11:23:51;;;;;;;3.33;2.03;;;23.60;99.90;;;;;;4992236;28;20118;-90
2023/04/25 11:26:20;;;;;;;2.80;1.85;;;24.80;99.90;;;;;;4992669;28;20105;-90
2023/04/25 11:28:46;;;;;;;4.40;2.05;;;26.10;99.90;;;;;;4993126;28;20041;-90
2023/04/25 11:31:12;;;;;;;3.88;1.92;;;26.00;99.90;;;;;;4992855;28;20030;-90
2023/04/25 11:33:38;;;;;;;3.08;1.70;;;27.30;99.90;;;;;;4991052;28;20452;-90
2023/04/25 11:36:05;;;;;;;5.53;1.80;;;28.20;99.90;;;;;;4992607;28;20043;-90
2023/04/25 11:38:30;;;;;;;5.45;1.95;;;26.50;99.90;;;;;;4990931;28;20392;-90
2023/04/25 11:40:57;;;;;;;3.95;1.70;;;24.00;99.90;;;;;;4973553;28;20034;-90
2023/04/25 11:43:22;;;;;;;4.00;2.00;;;22.10;99.90;;;;;;4973083;28;20525;-89
2023/04/25 11:45:50;;;;;;;4.25;1.80;;;21.30;99.90;;;;;;4975400;28;20054;-89
2023/04/25 11:48:16;;;;;;;4.57;2.08;;;21.00;99.90;;;;;;4993083;28;20509;-89
2023/04/25 11:50:42;;;;;;;3.83;2.00;;;22.60;99.90;;;;;;4996401;28;20097;-90
2023/04/25 11:53:08;;;;;;;3.08;1.75;;;25.10;99.90;;;;;;4995761;28;20022;-90
2023/04/25 11:55:34;;;;;;;3.28;2.00;;;24.00;99.90;;;;;;4995852;28;20158;-89
2023/04/25 11:58:00;;;;;;;3.33;1.90;;;23.70;99.90;;;;;;4996252;28;20022;-90
2023/04/25 12:00:26;;;;;;;3.63;1.90;;;24.40;99.90;;;;;;4995908;28;20105;-91
2023/04/25 12:02:54;;;;;;;4.35;2.00;;;25.30;99.90;;;;;;4995651;28;20022;-90
2023/04/25 12:05:23;;;;;;;3.40;1.90;;;25.60;99.90;;;;;;4995681;28;20022;-90
2023/04/25 12:07:49;;;;;;;4.50;1.88;;;26.60;99.90;;;;;;4995860;28;20081;-90
2023/04/25 12:10:16;;;;;;;4.47;2.28;;;27.10;99.90;;;;;;4996582;28;20018;-91
2023/04/25 12:12:43;;;;;;;3.70;1.70;;;27.10;99.90;;;;;;4996456;28;20116;-90
2023/04/25 12:15:15;;;;;;;2.88;1.95;;;25.20;99.90;;;;;;4994619;28;20096;-91
2023/04/25 12:17:42;;;;;;;3.70;1.80;;;25.80;99.90;;;;;;4996213;28;20042;-91
2023/04/25 12:20:10;;;;;;;2.63;2.00;;;26.40;99.90;;;;;;4996298;28;20054;-91
2023/04/25 12:22:36;;;;;;;3.80;2.20;;;26.20;99.90;;;;;;4995848;28;20030;-90
2023/04/25 12:25:04;;;;;;;3.22;2.05;;;26.50;99.90;;;;;;4995438;28;20089;-91
2023/04/25 12:27:31;;;;;;;3.67;2.08;;;26.60;99.90;;;;;;4995625;28;20427;-90
2023/04/25 12:29:57;;;;;;;2.55;2.13;;;26.50;99.90;;;;;;4994207;28;20080;-90
2023/04/25 12:32:23;;;;;;;3.17;2.13;;;26.30;99.90;;;;;;4994948;28;20422;-91
2023/04/25 12:34:49;;;;;;;3.67;1.95;;;26.60;99.90;;;;;;4995623;28;20065;-91
2023/04/25 12:37:15;;;;;;;3.63;2.20;;;27.50;99.90;;;;;;4995201;28;20399;-91
2023/04/25 12:39:41;;;;;;;4.28;1.90;;;28.70;99.90;;;;;;4984074;28;20126;-91